Time;durP1;ratioP1;P1;durP2;ratioP2;P2;SDS_P1;SDS_P2;PMS_P1;PMS_P2;Temp;Humidity;BMP_temperature;BMP_pressure;BME280_temperature;BME280_humidity;BME280_pressure;Samples;Min_cycle;Max_cycle;Signal;HPM_P1;HPM_P2
2022/08/09 00:01:27;;;;;;;2.10;2.00;;;24.90;59.70;;;;;;5051986;28;20480;-56
2022/08/09 00:03:54;;;;;;;2.37;2.27;;;24.90;59.80;;;;;;5052101;28;20532;-53
2022/08/09 00:06:22;;;;;;;1.53;1.50;;;24.90;59.90;;;;;;5051931;28;20552;-55
2022/08/09 00:08:49;;;;;;;1.67;1.67;;;24.90;59.90;;;;;;5051580;28;20446;-57
2022/08/09 00:11:17;;;;;;;1.83;1.60;;;24.90;60.00;;;;;;5052146;28;20440;-56
2022/08/09 00:13:44;;;;;;;1.80;1.70;;;24.90;60.10;;;;;;5051861;28;21001;-53
2022/08/09 00:16:11;;;;;;;3.67;1.77;;;24.90;60.10;;;;;;5052916;28;20464;-53
2022/08/09 00:18:38;;;;;;;2.43;2.23;;;24.90;60.10;;;;;;5052121;28;20926;-56
2022/08/09 00:21:07;;;;;;;2.20;2.10;;;24.90;60.30;;;;;;5051854;28;20922;-55
2022/08/09 00:23:37;;;;;;;2.50;1.90;;;24.90;60.20;;;;;;5051828;28;20483;-53
2022/08/09 00:26:04;;;;;;;2.20;1.60;;;24.90;60.30;;;;;;5051741;28;20571;-54
2022/08/09 00:28:31;;;;;;;4.30;1.70;;;24.90;60.30;;;;;;5051893;28;20536;-55
2022/08/09 00:30:58;;;;;;;2.50;2.30;;;24.90;60.50;;;;;;5052830;28;20480;-56
2022/08/09 00:33:25;;;;;;;2.87;1.90;;;24.90;60.50;;;;;;5051799;28;20447;-55
2022/08/09 00:35:52;;;;;;;1.90;1.80;;;24.90;60.40;;;;;;5051539;28;20463;-54
2022/08/09 00:38:19;;;;;;;1.60;1.50;;;24.90;60.70;;;;;;5051716;28;20455;-52
2022/08/09 00:40:47;;;;;;;1.93;1.83;;;24.90;60.70;;;;;;5051661;28;20480;-53
2022/08/09 00:43:14;;;;;;;1.70;1.60;;;24.90;60.80;;;;;;5051585;28;20520;-52
2022/08/09 00:45:41;;;;;;;1.60;1.50;;;24.90;60.90;;;;;;5051345;28;20511;-54
2022/08/09 00:48:08;;;;;;;2.13;1.63;;;24.80;60.80;;;;;;5052797;28;20479;-55
2022/08/09 00:50:35;;;;;;;2.40;2.20;;;24.80;60.90;;;;;;5051746;28;20880;-53
2022/08/09 00:53:02;;;;;;;2.07;1.97;;;24.80;61.00;;;;;;5051531;28;20480;-54
2022/08/09 00:55:29;;;;;;;1.40;1.30;;;24.80;61.00;;;;;;5051037;28;20472;-55
2022/08/09 00:57:57;;;;;;;1.87;1.77;;;24.80;61.10;;;;;;5051509;28;20455;-56
2022/08/09 01:00:24;;;;;;;2.30;2.07;;;24.80;61.20;;;;;;5051309;28;20570;-55
2022/08/09 01:03:11;;;;;;;1.70;1.60;;;24.80;61.30;;;;;;5052560;28;20486;-54
2022/08/09 01:05:42;;;;;;;1.73;1.63;;;24.80;61.40;;;;;;5051257;28;20626;-52
2022/08/09 01:08:18;;;;;;;2.07;1.87;;;24.80;61.60;;;;;;5051525;28;20848;-53
2022/08/09 01:10:54;;;;;;;1.67;1.57;;;24.70;61.70;;;;;;5051350;28;20926;-53
2022/08/09 01:13:26;;;;;;;1.77;1.73;;;24.80;61.90;;;;;;5051312;28;20522;-55
2022/08/09 01:15:55;;;;;;;1.73;1.63;;;24.70;61.70;;;;;;5051148;28;20859;-52
2022/08/09 01:18:29;;;;;;;2.10;2.00;;;24.70;62.00;;;;;;5051289;28;20484;-53
2022/08/09 01:21:07;;;;;;;1.70;1.60;;;24.70;62.20;;;;;;5056278;28;20522;-53
2022/08/09 01:23:45;;;;;;;3.90;1.60;;;24.70;62.30;;;;;;5055243;28;20450;-55
2022/08/09 01:26:25;;;;;;;2.50;1.50;;;24.70;62.50;;;;;;5055147;28;20909;-54
2022/08/09 01:28:55;;;;;;;1.70;1.60;;;24.70;62.60;;;;;;5055199;28;20443;-53
2022/08/09 01:31:26;;;;;;;1.73;1.63;;;24.70;62.60;;;;;;5055162;28;20443;-53
2022/08/09 01:33:56;;;;;;;2.17;1.97;;;24.70;62.70;;;;;;5055948;28;21052;-53
2022/08/09 01:36:26;;;;;;;1.63;1.50;;;24.70;62.80;;;;;;5054833;28;20464;-56
2022/08/09 01:38:54;;;;;;;1.60;1.60;;;24.70;62.80;;;;;;5054995;28;20547;-53
2022/08/09 01:41:24;;;;;;;1.80;1.70;;;24.70;62.90;;;;;;5054772;28;20484;-55
2022/08/09 01:43:55;;;;;;;1.53;1.53;;;24.70;63.00;;;;;;5054772;28;20466;-56
2022/08/09 01:46:27;;;;;;;1.33;1.20;;;24.70;63.10;;;;;;5059748;28;21050;-54
2022/08/09 01:48:57;;;;;;;1.93;1.83;;;24.70;63.20;;;;;;5074824;28;20478;-55
2022/08/09 01:51:25;;;;;;;1.73;1.63;;;24.70;63.50;;;;;;5074681;28;20478;-54
2022/08/09 01:53:55;;;;;;;1.47;1.47;;;24.60;63.60;;;;;;5074488;28;20966;-53
2022/08/09 01:56:23;;;;;;;2.07;2.00;;;24.60;64.30;;;;;;5074285;28;20994;-54
2022/08/09 01:58:53;;;;;;;2.07;2.03;;;24.70;63.70;;;;;;5074637;28;20530;-53
2022/08/09 02:01:21;;;;;;;1.43;1.33;;;24.60;63.60;;;;;;5074454;28;21089;-54
2022/08/09 02:03:49;;;;;;;3.60;1.40;;;24.60;63.70;;;;;;5072579;28;20449;-53
2022/08/09 02:07:07;;;;;;;2.83;1.53;;;24.60;63.80;;;;;;5073987;28;20554;-56
2022/08/09 02:09:06;;;;;;;2.23;2.13;;;24.60;64.10;;;;;;5074303;28;20823;-52
2022/08/09 02:11:33;;;;;;;1.90;1.80;;;24.60;64.10;;;;;;5074320;28;20475;-53
2022/08/09 02:14:03;;;;;;;1.50;1.40;;;24.60;64.50;;;;;;5074249;28;20444;-54
2022/08/09 02:16:32;;;;;;;3.70;1.77;;;24.60;64.50;;;;;;5074129;28;21057;-54
2022/08/09 02:19:00;;;;;;;1.60;1.50;;;24.60;64.50;;;;;;5072690;28;20448;-53
2022/08/09 02:21:29;;;;;;;1.70;1.60;;;24.60;64.60;;;;;;5073981;28;20521;-52
2022/08/09 02:23:59;;;;;;;1.60;1.60;;;24.60;64.60;;;;;;5073949;28;20547;-56
2022/08/09 02:26:29;;;;;;;1.70;1.70;;;24.60;64.70;;;;;;5073846;28;20504;-53
2022/08/09 02:29:00;;;;;;;1.87;1.73;;;24.60;64.90;;;;;;5074202;28;20479;-55
2022/08/09 02:31:32;;;;;;;2.30;1.53;;;24.50;65.00;;;;;;5073558;28;20530;-52
2022/08/09 02:34:03;;;;;;;1.57;1.57;;;24.50;65.10;;;;;;5073852;28;20479;-52
2022/08/09 02:36:33;;;;;;;1.70;1.60;;;24.50;65.10;;;;;;5058648;28;20550;-52
2022/08/09 02:39:04;;;;;;;1.80;1.70;;;24.50;65.10;;;;;;5053850;28;20447;-53
2022/08/09 02:41:36;;;;;;;1.57;1.47;;;24.50;65.20;;;;;;5053738;28;20515;-53
2022/08/09 02:44:08;;;;;;;1.90;1.90;;;24.50;65.20;;;;;;5053693;28;20535;-55
2022/08/09 02:46:38;;;;;;;2.00;1.80;;;24.50;65.30;;;;;;5053535;28;20547;-53
2022/08/09 02:49:10;;;;;;;1.63;1.53;;;24.50;65.40;;;;;;5053684;28;20873;-52
2022/08/09 02:51:39;;;;;;;1.30;1.30;;;24.50;65.50;;;;;;5060925;28;20534;-53
2022/08/09 02:54:07;;;;;;;2.60;2.03;;;24.50;65.50;;;;;;5073387;28;20533;-52
2022/08/09 02:56:35;;;;;;;1.33;1.33;;;24.50;65.60;;;;;;5083117;22;20567;-61
2022/08/09 02:59:07;;;;;;;2.13;1.60;;;24.50;65.60;;;;;;5033513;28;20946;-61
2022/08/09 03:01:37;;;;;;;1.97;1.87;;;24.50;65.70;;;;;;5033503;28;20524;-61
2022/08/09 03:04:06;;;;;;;3.43;1.70;;;24.50;66.10;;;;;;5033233;28;20456;-60
2022/08/09 03:06:34;;;;;;;3.00;1.80;;;24.50;65.80;;;;;;5041562;28;20548;-61
2022/08/09 03:09:02;;;;;;;1.67;1.60;;;24.50;66.00;;;;;;5053350;28;20870;-60
2022/08/09 03:11:30;;;;;;;1.73;1.63;;;24.50;66.00;;;;;;5053265;28;20541;-60
2022/08/09 03:13:59;;;;;;;1.87;1.70;;;24.50;66.10;;;;;;5053072;28;20498;-59
2022/08/09 03:16:27;;;;;;;2.10;1.87;;;24.50;66.20;;;;;;5053064;28;20517;-60
2022/08/09 03:18:56;;;;;;;1.70;1.60;;;24.50;66.30;;;;;;5053107;28;20499;-58
2022/08/09 03:21:24;;;;;;;1.77;1.50;;;24.50;66.40;;;;;;5052861;28;20571;-61
2022/08/09 03:23:51;;;;;;;1.57;1.47;;;24.50;66.40;;;;;;5061045;28;20456;-61
2022/08/09 03:26:19;;;;;;;1.83;1.73;;;24.50;66.40;;;;;;5072858;28;21165;-61
2022/08/09 03:28:48;;;;;;;1.40;1.30;;;24.50;66.40;;;;;;5072778;28;21026;-60
2022/08/09 03:31:17;;;;;;;1.60;1.50;;;24.50;66.50;;;;;;5073036;28;20449;-61
2022/08/09 03:33:46;;;;;;;1.50;1.43;;;24.50;66.70;;;;;;5072634;28;20535;-58
2022/08/09 03:36:14;;;;;;;1.60;1.50;;;24.50;66.80;;;;;;5072648;28;20459;-60
2022/08/09 03:38:43;;;;;;;1.80;1.70;;;24.50;66.80;;;;;;5072624;28;20482;-60
2022/08/09 03:41:11;;;;;;;1.70;1.60;;;24.50;66.90;;;;;;5054985;28;20511;-59
2022/08/09 03:43:37;;;;;;;1.43;1.33;;;24.40;66.90;;;;;;5051651;28;20448;-61
2022/08/09 03:46:04;;;;;;;1.70;1.60;;;24.40;67.10;;;;;;5052276;28;20507;-57
2022/08/09 03:48:33;;;;;;;1.50;1.40;;;24.40;67.30;;;;;;5052529;28;20569;-61
2022/08/09 03:51:03;;;;;;;2.47;1.97;;;24.40;67.40;;;;;;5052477;28;20436;-61
2022/08/09 03:53:32;;;;;;;1.67;1.30;;;24.30;67.40;;;;;;5052461;28;20445;-61
2022/08/09 03:55:59;;;;;;;1.80;1.70;;;24.40;67.50;;;;;;5053051;28;20475;-60
2022/08/09 03:58:26;;;;;;;1.80;1.70;;;24.40;67.60;;;;;;5052441;28;20501;-61
2022/08/09 04:00:54;;;;;;;4.83;1.83;;;24.40;67.70;;;;;;5052161;28;20519;-59
2022/08/09 04:03:21;;;;;;;1.80;1.77;;;24.40;67.70;;;;;;5052199;28;20451;-60
2022/08/09 04:05:48;;;;;;;1.60;1.50;;;24.30;67.80;;;;;;5052032;28;20539;-60
2022/08/09 04:08:15;;;;;;;1.60;1.60;;;24.30;68.00;;;;;;5052164;28;20969;-60
2022/08/09 04:10:43;;;;;;;1.60;1.60;;;24.30;68.00;;;;;;5052023;28;20443;-60
2022/08/09 04:13:11;;;;;;;1.53;1.43;;;24.30;68.10;;;;;;5053248;28;20967;-61
2022/08/09 04:15:38;;;;;;;2.10;2.00;;;24.30;68.10;;;;;;5051818;28;21012;-60
2022/08/09 04:18:06;;;;;;;1.23;1.23;;;24.30;68.10;;;;;;5052128;28;20528;-61
2022/08/09 04:20:33;;;;;;;1.60;1.50;;;24.30;68.20;;;;;;5051954;28;20468;-60
2022/08/09 04:23:00;;;;;;;1.53;1.53;;;24.30;68.30;;;;;;5051820;28;20810;-61
2022/08/09 04:25:27;;;;;;;1.30;1.30;;;24.30;68.20;;;;;;5051747;28;20559;-61
2022/08/09 04:27:55;;;;;;;1.67;1.57;;;24.30;68.20;;;;;;5051778;28;20556;-59
2022/08/09 04:30:23;;;;;;;1.70;1.60;;;24.30;68.30;;;;;;5052284;28;20793;-61
2022/08/09 04:32:51;;;;;;;2.00;1.90;;;24.30;68.50;;;;;;5051855;28;20869;-60
2022/08/09 04:35:18;;;;;;;1.50;1.50;;;24.30;68.60;;;;;;5051433;28;20479;-60
2022/08/09 04:37:45;;;;;;;1.80;1.70;;;24.30;68.60;;;;;;5051657;28;20559;-61
2022/08/09 04:40:13;;;;;;;1.90;1.80;;;24.30;68.70;;;;;;5051747;28;20531;-60
2022/08/09 04:42:40;;;;;;;2.40;1.80;;;24.30;68.90;;;;;;5051416;28;20566;-59
2022/08/09 04:45:10;;;;;;;1.87;1.70;;;24.30;68.90;;;;;;5052501;28;20534;-60
2022/08/09 04:47:36;;;;;;;1.87;1.77;;;24.30;68.80;;;;;;5051523;28;20492;-61
2022/08/09 04:50:04;;;;;;;1.80;1.70;;;24.30;68.80;;;;;;5051711;28;20982;-60
2022/08/09 04:52:31;;;;;;;1.70;1.60;;;24.30;68.90;;;;;;5051470;28;20519;-60
2022/08/09 04:54:59;;;;;;;1.67;1.57;;;24.30;69.10;;;;;;5051111;28;20446;-60
2022/08/09 04:57:27;;;;;;;1.47;1.37;;;24.30;69.30;;;;;;5051289;28;20533;-59
2022/08/09 04:59:55;;;;;;;1.63;1.30;;;24.30;69.20;;;;;;5051754;28;20452;-61
2022/08/09 05:02:24;;;;;;;4.67;2.03;;;24.30;69.30;;;;;;5051694;28;20476;-60
2022/08/09 05:04:50;;;;;;;1.50;1.50;;;24.30;69.30;;;;;;5051171;28;20490;-61
2022/08/09 05:07:18;;;;;;;2.10;1.57;;;24.30;69.40;;;;;;5051313;28;20555;-61
2022/08/09 05:09:45;;;;;;;1.87;1.80;;;24.30;69.50;;;;;;5051439;28;20505;-60
2022/08/09 05:12:12;;;;;;;1.43;1.43;;;24.30;69.40;;;;;;5051498;28;20535;-61
2022/08/09 05:14:39;;;;;;;1.30;1.30;;;24.30;69.50;;;;;;5051104;28;20547;-60
2022/08/09 05:17:06;;;;;;;1.10;1.10;;;24.30;69.80;;;;;;5052255;28;20472;-60
2022/08/09 05:19:34;;;;;;;1.67;1.63;;;24.30;69.90;;;;;;5051310;28;20532;-58
2022/08/09 05:22:01;;;;;;;2.10;1.90;;;24.30;69.90;;;;;;5051163;28;20484;-59
2022/08/09 05:24:28;;;;;;;2.10;1.57;;;24.30;70.00;;;;;;5050965;28;20444;-61
2022/08/09 05:26:55;;;;;;;2.40;2.00;;;24.30;70.40;;;;;;5051067;28;20518;-61
2022/08/09 05:29:21;;;;;;;3.27;1.83;;;24.30;70.90;;;;;;5051025;28;20530;-59
2022/08/09 05:31:49;;;;;;;1.80;1.70;;;24.30;71.20;;;;;;5052096;28;20527;-61
2022/08/09 05:34:16;;;;;;;2.03;1.80;;;24.30;71.30;;;;;;5050966;28;20479;-61
2022/08/09 05:36:45;;;;;;;1.70;1.63;;;24.30;71.30;;;;;;5050907;28;20459;-58
2022/08/09 05:39:12;;;;;;;3.30;2.27;;;24.30;71.40;;;;;;5051183;28;20789;-61
2022/08/09 05:41:39;;;;;;;3.00;2.20;;;24.30;72.30;;;;;;5050970;28;20519;-62
2022/08/09 05:44:05;;;;;;;3.03;2.10;;;24.40;72.20;;;;;;5051063;28;20885;-61
2022/08/09 05:46:32;;;;;;;2.27;2.17;;;24.40;72.20;;;;;;5051106;28;20502;-62
2022/08/09 05:48:59;;;;;;;3.20;2.50;;;24.50;71.50;;;;;;5052150;28;20458;-63
2022/08/09 05:51:26;;;;;;;2.07;1.97;;;24.60;71.30;;;;;;5051052;28;20526;-62
2022/08/09 05:53:54;;;;;;;2.50;2.40;;;24.60;71.00;;;;;;5050783;28;20533;-63
2022/08/09 05:56:21;;;;;;;2.40;2.30;;;24.70;71.90;;;;;;5050688;28;20572;-62
2022/08/09 05:58:49;;;;;;;3.10;1.93;;;24.70;70.90;;;;;;5051330;28;20444;-57
2022/08/09 06:01:16;;;;;;;3.00;2.30;;;24.80;70.40;;;;;;5052502;28;20811;-55
2022/08/09 06:03:43;;;;;;;4.93;3.00;;;24.80;69.80;;;;;;5051737;28;20487;-61
2022/08/09 06:06:10;;;;;;;2.40;2.20;;;24.90;70.70;;;;;;5053161;28;20551;-61
2022/08/09 06:08:37;;;;;;;2.30;2.07;;;25.00;71.30;;;;;;5054603;28;20486;-62
2022/08/09 06:11:05;;;;;;;3.10;2.00;;;25.00;70.10;;;;;;5054400;28;20483;-62
2022/08/09 06:13:33;;;;;;;2.10;2.00;;;25.00;70.90;;;;;;5053972;28;20852;-62
2022/08/09 06:16:00;;;;;;;3.33;2.87;;;25.10;69.90;;;;;;5053852;28;20947;-61
2022/08/09 06:18:27;;;;;;;2.07;1.97;;;25.10;69.70;;;;;;5054255;28;20451;-62
2022/08/09 06:20:55;;;;;;;2.90;2.47;;;25.20;69.30;;;;;;5055175;28;20448;-61
2022/08/09 06:23:22;;;;;;;1.80;1.80;;;25.30;69.00;;;;;;5054067;28;20451;-61
2022/08/09 06:25:50;;;;;;;3.47;2.07;;;25.30;68.90;;;;;;5053681;28;20450;-60
2022/08/09 06:28:18;;;;;;;2.20;1.97;;;25.30;68.70;;;;;;5054169;28;20451;-62
2022/08/09 06:30:45;;;;;;;2.67;2.00;;;25.40;68.60;;;;;;5070943;28;20879;-61
2022/08/09 06:33:12;;;;;;;2.93;2.20;;;25.40;68.00;;;;;;5075514;28;20509;-60
2022/08/09 06:35:39;;;;;;;2.10;2.00;;;25.40;68.50;;;;;;5062257;28;20498;-59
2022/08/09 06:38:06;;;;;;;3.20;2.20;;;25.40;68.30;;;;;;5053862;28;20540;-62
2022/08/09 06:40:33;;;;;;;1.60;1.60;;;25.40;68.20;;;;;;5053878;28;20506;-61
2022/08/09 06:43:00;;;;;;;2.50;2.30;;;25.50;68.00;;;;;;5053624;28;20559;-63
2022/08/09 06:45:29;;;;;;;2.50;2.27;;;25.50;67.40;;;;;;5059564;28;20440;-64
2022/08/09 06:47:55;;;;;;;6.40;2.40;;;25.50;67.20;;;;;;5054000;28;20498;-63
2022/08/09 06:50:22;;;;;;;2.20;2.10;;;25.60;67.40;;;;;;5053714;28;20520;-63
2022/08/09 06:52:49;;;;;;;2.20;2.10;;;25.60;67.10;;;;;;5053692;28;20528;-61
2022/08/09 06:55:19;;;;;;;4.03;3.63;;;25.70;66.80;;;;;;5053290;28;20466;-60
2022/08/09 06:57:46;;;;;;;2.00;1.90;;;25.70;66.80;;;;;;5053303;28;20530;-61
2022/08/09 07:00:14;;;;;;;2.40;2.30;;;25.70;66.90;;;;;;5053539;28;20539;-60
2022/08/09 07:02:43;;;;;;;3.33;3.13;;;25.70;66.30;;;;;;5053309;28;20484;-63
2022/08/09 07:05:10;;;;;;;2.20;2.00;;;25.80;66.30;;;;;;5057918;28;20487;-63
2022/08/09 07:07:37;;;;;;;2.40;2.30;;;25.80;66.00;;;;;;5071605;28;20549;-64
2022/08/09 07:10:05;;;;;;;2.07;1.97;;;25.80;66.00;;;;;;5072945;28;20482;-60
2022/08/09 07:12:32;;;;;;;2.70;2.60;;;25.80;65.80;;;;;;5073344;28;20516;-66
2022/08/09 07:14:59;;;;;;;2.80;2.53;;;25.80;66.50;;;;;;5072863;28;20474;-62
2022/08/09 07:17:25;;;;;;;2.90;2.30;;;25.90;66.30;;;;;;5073029;28;20877;-62
2022/08/09 07:19:54;;;;;;;1.97;1.87;;;25.90;65.90;;;;;;5073033;28;20508;-61
2022/08/09 07:22:22;;;;;;;2.10;2.00;;;25.90;65.40;;;;;;5063152;28;20487;-61
2022/08/09 07:24:48;;;;;;;2.00;1.90;;;25.90;65.10;;;;;;5052647;28;20536;-60
2022/08/09 07:27:15;;;;;;;4.20;2.10;;;25.90;65.10;;;;;;5052999;28;20492;-60
2022/08/09 07:29:42;;;;;;;3.43;2.40;;;25.80;65.10;;;;;;5053823;28;20539;-60
2022/08/09 07:32:09;;;;;;;2.30;2.20;;;25.70;65.30;;;;;;5072774;28;20874;-60
2022/08/09 07:34:36;;;;;;;2.13;2.00;;;25.70;65.40;;;;;;5072579;28;20477;-61
2022/08/09 07:37:04;;;;;;;1.83;1.73;;;25.60;65.60;;;;;;5072540;28;20562;-60
2022/08/09 07:39:31;;;;;;;2.47;2.27;;;25.60;65.90;;;;;;5071046;28;20861;-61
2022/08/09 07:41:58;;;;;;;2.43;2.23;;;25.50;65.90;;;;;;5072534;28;20522;-61
2022/08/09 07:44:25;;;;;;;2.40;2.30;;;25.50;66.20;;;;;;5071793;28;20479;-60
2022/08/09 07:46:52;;;;;;;2.40;2.30;;;25.50;66.50;;;;;;5072353;28;20526;-61
2022/08/09 07:49:19;;;;;;;3.20;3.00;;;25.40;67.20;;;;;;5073318;28;20482;-59
2022/08/09 07:51:46;;;;;;;2.80;2.60;;;25.40;67.20;;;;;;5072416;28;20439;-60
2022/08/09 07:54:14;;;;;;;3.10;2.03;;;25.40;67.40;;;;;;5070633;28;20527;-61
2022/08/09 07:56:41;;;;;;;2.10;2.00;;;25.40;67.40;;;;;;5071691;28;20566;-59
2022/08/09 07:59:08;;;;;;;2.03;1.93;;;25.40;67.10;;;;;;5072216;28;20478;-60
2022/08/09 08:01:36;;;;;;;2.67;2.47;;;25.30;67.10;;;;;;5072232;28;20445;-60
2022/08/09 08:04:03;;;;;;;2.37;2.17;;;25.30;67.20;;;;;;5071910;28;20447;-60
2022/08/09 08:06:30;;;;;;;2.33;2.23;;;25.20;67.60;;;;;;5071997;28;20491;-60
2022/08/09 08:08:57;;;;;;;3.40;2.57;;;25.20;67.90;;;;;;5072120;28;20542;-60
2022/08/09 08:11:25;;;;;;;2.60;2.50;;;25.20;68.10;;;;;;5053708;28;20536;-61
2022/08/09 08:13:52;;;;;;;2.60;2.40;;;25.20;68.10;;;;;;5051934;28;20435;-60
2022/08/09 08:16:20;;;;;;;3.03;2.70;;;25.20;68.10;;;;;;5051921;28;20841;-61
2022/08/09 08:18:47;;;;;;;2.57;2.33;;;25.30;68.50;;;;;;5051995;28;20921;-61
2022/08/09 08:21:14;;;;;;;3.07;2.33;;;25.20;68.50;;;;;;5051993;28;20452;-61
2022/08/09 08:23:41;;;;;;;5.23;2.30;;;25.20;68.40;;;;;;5051788;28;20567;-61
2022/08/09 08:26:08;;;;;;;2.27;2.07;;;25.20;68.90;;;;;;5057306;28;20550;-60
2022/08/09 08:28:36;;;;;;;2.80;2.60;;;25.20;68.90;;;;;;5071619;28;20482;-60
2022/08/09 08:31:03;;;;;;;5.10;2.70;;;25.20;69.10;;;;;;5071751;28;20452;-60
2022/08/09 08:33:30;;;;;;;3.23;2.63;;;25.10;69.00;;;;;;5071397;28;20534;-59
2022/08/09 08:35:57;;;;;;;2.03;1.93;;;25.10;68.80;;;;;;5071543;28;20475;-60
2022/08/09 08:38:24;;;;;;;2.30;2.20;;;25.10;68.80;;;;;;5071808;28;20889;-61
2022/08/09 08:40:54;;;;;;;3.17;2.60;;;25.10;68.70;;;;;;5058009;28;21021;-61
2022/08/09 08:43:22;;;;;;;2.37;2.27;;;25.10;68.70;;;;;;5051599;28;20490;-61
2022/08/09 08:45:53;;;;;;;2.70;2.60;;;25.10;69.10;;;;;;5051376;28;20452;-61
2022/08/09 08:48:21;;;;;;;2.63;2.43;;;25.10;69.00;;;;;;5051641;28;20548;-60
2022/08/09 08:50:48;;;;;;;3.17;2.77;;;25.10;69.00;;;;;;5052068;28;20933;-61
2022/08/09 08:53:16;;;;;;;2.53;2.30;;;25.00;69.00;;;;;;5051680;28;20531;-61
2022/08/09 08:55:43;;;;;;;3.10;2.43;;;25.00;69.10;;;;;;5056954;28;20865;-60
2022/08/09 08:58:10;;;;;;;3.80;2.63;;;25.00;69.30;;;;;;5072203;28;20448;-61
2022/08/09 09:00:37;;;;;;;3.87;2.20;;;25.00;69.50;;;;;;5071515;28;20976;-61
2022/08/09 09:03:06;;;;;;;2.43;2.33;;;25.00;69.40;;;;;;5071349;28;20485;-61
2022/08/09 09:05:33;;;;;;;2.37;2.27;;;25.00;69.30;;;;;;5071283;28;20443;-62
2022/08/09 09:08:03;;;;;;;2.43;2.33;;;25.00;69.20;;;;;;5071287;28;20999;-61
2022/08/09 09:10:31;;;;;;;2.33;2.23;;;25.00;69.10;;;;;;5071479;28;20454;-61
2022/08/09 09:12:59;;;;;;;2.60;2.50;;;25.00;69.20;;;;;;5053796;28;20445;-61
2022/08/09 09:15:26;;;;;;;2.80;2.63;;;25.00;69.30;;;;;;5051119;28;20531;-62
2022/08/09 09:17:53;;;;;;;3.70;2.47;;;25.00;71.00;;;;;;5051318;28;20474;-62
2022/08/09 09:20:21;;;;;;;2.67;2.43;;;25.10;69.80;;;;;;5051395;28;20448;-61
2022/08/09 09:22:53;;;;;;;3.00;2.80;;;25.20;69.50;;;;;;5051490;28;20506;-61
2022/08/09 09:25:34;;;;;;;3.33;2.90;;;25.20;69.00;;;;;;5052228;28;20455;-64
2022/08/09 09:28:02;;;;;;;2.20;2.10;;;25.30;70.00;;;;;;5071191;28;20900;-62
2022/08/09 09:30:29;;;;;;;2.70;2.50;;;25.30;69.30;;;;;;5057735;28;20476;-62
2022/08/09 09:33:08;;;;;;;2.60;2.30;;;25.30;70.00;;;;;;5062798;28;20472;-61
2022/08/09 09:35:52;;;;;;;2.67;2.57;;;25.40;70.60;;;;;;5071397;28;20528;-61
2022/08/09 09:38:22;;;;;;;2.90;2.70;;;25.40;69.60;;;;;;5071194;28;20458;-60
2022/08/09 09:40:49;;;;;;;2.80;2.60;;;25.50;69.20;;;;;;5072203;28;20952;-60
2022/08/09 09:43:19;;;;;;;2.47;2.37;;;25.50;70.60;;;;;;5075955;28;20487;-60
2022/08/09 09:45:52;;;;;;;2.70;2.50;;;25.50;70.70;;;;;;5073493;28;20454;-60
2022/08/09 09:48:20;;;;;;;2.20;2.10;;;25.60;70.00;;;;;;5075832;28;20855;-56
2022/08/09 09:50:52;;;;;;;5.90;2.43;;;25.60;70.50;;;;;;5075106;28;20432;-61
2022/08/09 09:53:21;;;;;;;2.40;2.30;;;25.70;68.70;;;;;;5075473;28;20793;-63
2022/08/09 09:55:56;;;;;;;3.60;2.27;;;25.70;70.00;;;;;;5074289;28;21130;-65
2022/08/09 09:58:23;;;;;;;2.60;2.40;;;25.70;67.40;;;;;;5074703;28;20948;-63
2022/08/09 10:00:52;;;;;;;2.50;2.30;;;25.80;66.80;;;;;;5074894;28;20528;-61
2022/08/09 10:03:19;;;;;;;3.10;2.90;;;25.80;65.60;;;;;;5072909;28;21016;-63
2022/08/09 10:06:00;;;;;;;3.03;2.40;;;25.80;65.70;;;;;;5074048;28;20473;-64
2022/08/09 10:08:27;;;;;;;2.37;2.27;;;25.80;64.40;;;;;;5074445;28;20862;-59
2022/08/09 10:10:54;;;;;;;3.67;2.43;;;25.80;63.50;;;;;;5074244;28;20447;-64
2022/08/09 10:13:21;;;;;;;4.13;3.57;;;25.90;63.60;;;;;;5074476;28;20498;-62
2022/08/09 10:15:49;;;;;;;2.70;2.60;;;25.90;63.20;;;;;;5073983;28;20443;-60
2022/08/09 10:18:16;;;;;;;2.43;2.33;;;25.90;62.90;;;;;;5072651;28;20439;-63
2022/08/09 10:20:44;;;;;;;2.73;2.63;;;25.90;63.10;;;;;;5074244;28;20990;-62
2022/08/09 10:23:18;;;;;;;4.23;3.93;;;25.90;62.20;;;;;;5074127;28;20898;-62
2022/08/09 10:25:46;;;;;;;3.20;3.00;;;25.90;62.10;;;;;;5074908;28;20444;-64
2022/08/09 10:28:14;;;;;;;2.67;2.47;;;25.90;62.40;;;;;;5074051;28;20466;-61
2022/08/09 10:30:41;;;;;;;3.13;2.93;;;26.00;62.10;;;;;;5073852;28;20453;-61
2022/08/09 10:33:09;;;;;;;2.20;2.03;;;26.00;62.30;;;;;;5073906;28;20436;-65
2022/08/09 10:35:36;;;;;;;3.47;3.17;;;26.00;62.00;;;;;;5057948;28;20444;-61
2022/08/09 10:38:05;;;;;;;2.40;2.30;;;26.00;61.70;;;;;;5053367;28;20547;-63
2022/08/09 10:40:33;;;;;;;3.10;2.90;;;26.00;61.60;;;;;;5054127;28;20929;-59
2022/08/09 10:43:01;;;;;;;2.63;2.53;;;26.10;61.70;;;;;;5053766;28;20991;-63
2022/08/09 10:45:30;;;;;;;3.23;3.03;;;26.10;62.30;;;;;;5054181;28;20474;-61
2022/08/09 10:48:04;;;;;;;3.07;2.97;;;26.10;61.80;;;;;;5054948;28;20494;-63
2022/08/09 10:53:41;;;;;;;3.03;2.83;;;26.10;61.40;;;;;;5054621;28;20486;-61
2022/08/09 10:56:18;;;;;;;2.90;2.70;;;26.10;60.90;;;;;;5054385;28;20507;-61
2022/08/09 10:58:45;;;;;;;2.57;2.47;;;26.10;60.90;;;;;;5054494;28;20446;-62
2022/08/09 11:01:39;;;;;;;4.20;3.90;;;26.10;60.10;;;;;;5054410;28;20484;-61
2022/08/09 11:04:21;;;;;;;3.60;3.40;;;26.10;60.00;;;;;;5054457;28;20541;-57
2022/08/09 11:06:50;;;;;;;4.27;3.40;;;26.10;59.90;;;;;;5057599;28;20495;-59
2022/08/09 11:09:19;;;;;;;3.83;3.50;;;26.20;60.10;;;;;;5074396;28;20538;-59
2022/08/09 11:12:18;;;;;;;2.57;2.47;;;26.20;60.30;;;;;;5074300;28;20447;-59
2022/08/09 11:14:49;;;;;;;3.13;2.87;;;26.20;59.90;;;;;;4993212;28;20471;-62
2022/08/09 11:17:51;;;;;;;2.80;2.70;;;26.20;60.60;;;;;;5042541;28;20480;-64
2022/08/09 11:20:37;;;;;;;4.10;3.00;;;26.20;59.70;;;;;;5067378;28;20458;-63
2022/08/09 11:23:04;;;;;;;2.90;2.80;;;26.30;59.80;;;;;;5074235;28;20482;-65
2022/08/09 11:25:36;;;;;;;2.83;2.63;;;26.30;59.70;;;;;;5074553;28;20853;-63
2022/08/09 11:28:33;;;;;;;2.73;2.63;;;26.30;59.50;;;;;;5073934;28;20546;-60
2022/08/09 11:31:01;;;;;;;3.50;3.30;;;26.30;59.60;;;;;;5074399;28;20492;-65
2022/08/09 11:33:41;;;;;;;3.10;2.90;;;26.30;59.40;;;;;;5067571;28;20436;-63
2022/08/09 11:36:09;;;;;;;3.20;2.90;;;26.30;59.20;;;;;;5053961;28;20472;-63
2022/08/09 11:38:36;;;;;;;2.70;2.60;;;26.30;58.80;;;;;;5054063;28;20872;-65
2022/08/09 11:41:27;;;;;;;2.90;2.70;;;26.30;59.00;;;;;;5053964;28;20468;-64
2022/08/09 11:43:56;;;;;;;2.60;2.50;;;26.30;58.20;;;;;;5053721;28;20566;-64
2022/08/09 11:46:23;;;;;;;2.10;2.00;;;26.30;57.80;;;;;;5053013;28;20513;-66
2022/08/09 11:48:52;;;;;;;2.87;2.67;;;26.40;57.90;;;;;;5055421;28;20468;-64
2022/08/09 11:51:20;;;;;;;3.90;2.73;;;26.40;57.60;;;;;;5073073;28;20447;-58
2022/08/09 11:53:48;;;;;;;3.73;3.53;;;26.40;57.60;;;;;;5072313;28;20435;-59
2022/08/09 11:56:26;;;;;;;2.60;2.50;;;26.40;57.40;;;;;;5072286;28;20475;-57
2022/08/09 11:58:56;;;;;;;3.00;2.80;;;26.30;57.50;;;;;;5072297;28;20447;-59
2022/08/09 12:01:36;;;;;;;3.40;3.20;;;26.30;57.10;;;;;;5072284;28;20477;-59
2022/08/09 12:04:06;;;;;;;3.00;2.80;;;26.20;57.20;;;;;;5071216;28;20574;-60
2022/08/09 12:06:34;;;;;;;5.40;2.93;;;26.20;56.60;;;;;;5054590;28;20581;-57
2022/08/09 12:09:03;;;;;;;3.00;2.80;;;26.10;56.90;;;;;;5065178;28;20872;-57
2022/08/09 12:11:30;;;;;;;3.73;3.53;;;26.10;57.10;;;;;;5072068;28;20443;-55
2022/08/09 12:14:00;;;;;;;3.30;3.10;;;26.10;57.00;;;;;;5071960;28;20467;-57
2022/08/09 12:16:31;;;;;;;2.67;2.57;;;26.10;57.40;;;;;;5071891;28;20495;-56
2022/08/09 12:19:01;;;;;;;2.70;2.60;;;26.00;57.60;;;;;;5072076;28;20471;-57
2022/08/09 12:21:32;;;;;;;2.63;2.53;;;26.10;57.70;;;;;;5070293;28;20458;-57
2022/08/09 12:24:01;;;;;;;3.07;2.90;;;26.00;58.00;;;;;;5069612;28;20479;-54
2022/08/09 12:26:42;;;;;;;2.90;2.70;;;26.00;58.20;;;;;;5051588;28;20497;-57
2022/08/09 12:29:15;;;;;;;2.93;2.83;;;26.00;58.00;;;;;;5051962;28;20445;-56
2022/08/09 12:31:44;;;;;;;2.37;2.27;;;26.00;58.10;;;;;;5051790;28;20480;-58
2022/08/09 12:34:11;;;;;;;2.77;2.67;;;26.00;58.00;;;;;;5051623;28;20455;-57
2022/08/09 12:36:50;;;;;;;3.33;3.13;;;26.00;57.90;;;;;;5051714;28;20479;-58
2022/08/09 12:39:17;;;;;;;2.70;2.50;;;26.00;57.90;;;;;;5071769;28;20442;-60
2022/08/09 12:41:44;;;;;;;3.07;2.83;;;26.00;57.70;;;;;;5071735;28;20490;-56
2022/08/09 12:44:12;;;;;;;2.70;2.50;;;26.00;57.60;;;;;;5071415;28;20566;-60
2022/08/09 12:46:41;;;;;;;2.83;2.67;;;26.00;57.60;;;;;;5071513;28;20543;-58
2022/08/09 12:49:09;;;;;;;2.87;2.73;;;26.00;57.60;;;;;;5071670;28;20823;-59
2022/08/09 12:51:36;;;;;;;2.80;2.60;;;26.00;57.90;;;;;;5070037;28;20874;-60
2022/08/09 12:54:05;;;;;;;3.90;3.27;;;26.00;57.70;;;;;;5051291;28;20447;-59
2022/08/09 12:56:33;;;;;;;2.83;2.70;;;26.00;57.60;;;;;;5051320;28;20508;-58
2022/08/09 12:59:10;;;;;;;3.13;2.93;;;26.00;57.50;;;;;;5051365;28;20539;-57
2022/08/09 13:01:40;;;;;;;2.73;2.63;;;26.00;57.70;;;;;;5051492;28;20598;-57